CYBG

Bagotville International Airport

Airport
ICAO code
CYBG
IATA Code
YBG
Summary
ICAO Region
NAM
ICAO Territory
Location

Bagotville, Quebec

Serving
Saguenay
Elevation
522 ft
Coordinates
48° 20' 6" N , 70° 59' 42" W
KCC
Airport CFIT
Altimeter Temperature Error Correction
Airport GND
Aircraft Ground De/Anti Icing
Airport RE
Crosswind Landings
Metar
Observation
CYBG 280321Z 00000KT 2 1/2SM -SN BR BKN008 OVC020 00/M00 A2947 RMK SF7SC1 VIS VRB 1 1/2-4 PRESFR SLP986
Station
Bagotville, Que.
Date/Time
2022-11-28 03:21:00
Wind direction
Wind speed
00 kts
Lowest cloud amount
broken clouds
Temperature
0°C
Dew point
-0°C
Humidity
100%
Weather condition
light

Bagotville International Airport, also known as Canadian Forces Base Bagotville or the Saguenay-Bagotville Airport is located near Saguenay, Quebec, Canada

Climatology

Humid Continental climate (Köppen climate classification Dfb) - Variable weather patterns and a large seasonal temperature variance. Summers are often warm and humid with frequent thunderstorms and winters can be very cold with frequent snowfall and persistent snow cover.

Runways

Designator Length Width Surface Rops
18/36 1829 46 ASP Yes/Yes
11/29 3048 46 CON Yes/Yes

Airport map

Aerial View

SKYbrary Partners:

Safety knowledge contributed by: